sensor_id;sensor_type;location;lat;lon;timestamp;P1;durP1;ratioP1;P2;durP2;ratioP2
81672;SDS011;71092;41.158;-8.680;2023-07-22T00:00:51;8.93;;;4.32;;
81672;SDS011;71092;41.158;-8.680;2023-07-22T00:03:16;8.23;;;3.80;;
81672;SDS011;71092;41.158;-8.680;2023-07-22T00:05:42;8.00;;;4.32;;
81672;SDS011;71092;41.158;-8.680;2023-07-22T00:08:09;7.75;;;3.63;;
81672;SDS011;71092;41.158;-8.680;2023-07-22T00:10:54;9.55;;;4.85;;
81672;SDS011;71092;41.158;-8.680;2023-07-22T00:16:23;9.43;;;4.68;;
81672;SDS011;71092;41.158;-8.680;2023-07-22T00:18:49;10.63;;;4.90;;
81672;SDS011;71092;41.158;-8.680;2023-07-22T00:21:15;8.98;;;4.53;;
81672;SDS011;71092;41.158;-8.680;2023-07-22T00:23:41;10.30;;;4.68;;
81672;SDS011;71092;41.158;-8.680;2023-07-22T00:26:07;7.93;;;4.10;;
81672;SDS011;71092;41.158;-8.680;2023-07-22T00:28:34;10.25;;;4.63;;
81672;SDS011;71092;41.158;-8.680;2023-07-22T00:33:46;11.93;;;5.05;;
81672;SDS011;71092;41.158;-8.680;2023-07-22T00:36:12;7.13;;;4.07;;
81672;SDS011;71092;41.158;-8.680;2023-07-22T00:38:38;7.70;;;4.78;;
81672;SDS011;71092;41.158;-8.680;2023-07-22T00:41:05;8.48;;;4.38;;
81672;SDS011;71092;41.158;-8.680;2023-07-22T00:43:32;7.45;;;4.00;;
81672;SDS011;71092;41.158;-8.680;2023-07-22T00:45:58;7.75;;;4.38;;
81672;SDS011;71092;41.158;-8.680;2023-07-22T00:48:24;10.50;;;4.63;;
81672;SDS011;71092;41.158;-8.680;2023-07-22T00:50:52;10.02;;;4.82;;
81672;SDS011;71092;41.158;-8.680;2023-07-22T00:53:17;11.75;;;4.10;;
81672;SDS011;71092;41.158;-8.680;2023-07-22T00:55:43;10.48;;;4.35;;
81672;SDS011;71092;41.158;-8.680;2023-07-22T00:58:10;9.45;;;5.00;;
81672;SDS011;71092;41.158;-8.680;2023-07-22T01:00:36;7.53;;;4.35;;
81672;SDS011;71092;41.158;-8.680;2023-07-22T01:03:03;8.63;;;4.25;;
81672;SDS011;71092;41.158;-8.680;2023-07-22T01:05:29;8.13;;;4.63;;
81672;SDS011;71092;41.158;-8.680;2023-07-22T01:07:56;7.57;;;4.07;;
81672;SDS011;71092;41.158;-8.680;2023-07-22T01:10:22;7.22;;;3.75;;
81672;SDS011;71092;41.158;-8.680;2023-07-22T01:12:48;8.75;;;4.90;;
81672;SDS011;71092;41.158;-8.680;2023-07-22T01:15:14;7.70;;;4.63;;
81672;SDS011;71092;41.158;-8.680;2023-07-22T01:17:40;7.85;;;4.60;;
81672;SDS011;71092;41.158;-8.680;2023-07-22T01:20:25;8.18;;;4.28;;
81672;SDS011;71092;41.158;-8.680;2023-07-22T01:23:10;7.32;;;3.97;;
81672;SDS011;71092;41.158;-8.680;2023-07-22T01:25:37;8.85;;;4.20;;
81672;SDS011;71092;41.158;-8.680;2023-07-22T01:28:03;7.78;;;4.00;;
81672;SDS011;71092;41.158;-8.680;2023-07-22T01:30:28;11.07;;;4.68;;
81672;SDS011;71092;41.158;-8.680;2023-07-22T01:32:54;9.15;;;4.65;;
81672;SDS011;71092;41.158;-8.680;2023-07-22T01:35:20;10.30;;;4.57;;
81672;SDS011;71092;41.158;-8.680;2023-07-22T01:37:46;8.25;;;4.57;;
81672;SDS011;71092;41.158;-8.680;2023-07-22T01:40:12;7.95;;;4.30;;
81672;SDS011;71092;41.158;-8.680;2023-07-22T01:42:38;9.00;;;4.35;;
81672;SDS011;71092;41.158;-8.680;2023-07-22T01:45:05;10.52;;;4.65;;
81672;SDS011;71092;41.158;-8.680;2023-07-22T01:47:34;8.68;;;4.75;;
81672;SDS011;71092;41.158;-8.680;2023-07-22T01:50:01;7.68;;;4.57;;
81672;SDS011;71092;41.158;-8.680;2023-07-22T01:52:28;8.43;;;4.60;;
81672;SDS011;71092;41.158;-8.680;2023-07-22T01:54:54;7.60;;;4.43;;
81672;SDS011;71092;41.158;-8.680;2023-07-22T01:57:19;9.95;;;4.28;;
81672;SDS011;71092;41.158;-8.680;2023-07-22T01:59:45;7.75;;;4.78;;
81672;SDS011;71092;41.158;-8.680;2023-07-22T02:02:11;10.80;;;4.38;;
81672;SDS011;71092;41.158;-8.680;2023-07-22T02:04:37;9.20;;;4.38;;
81672;SDS011;71092;41.158;-8.680;2023-07-22T02:07:21;8.43;;;4.50;;
81672;SDS011;71092;41.158;-8.680;2023-07-22T02:09:47;6.65;;;3.95;;
81672;SDS011;71092;41.158;-8.680;2023-07-22T02:12:13;9.68;;;4.93;;
81672;SDS011;71092;41.158;-8.680;2023-07-22T02:14:40;9.75;;;4.88;;
81672;SDS011;71092;41.158;-8.680;2023-07-22T02:17:05;6.32;;;3.92;;
81672;SDS011;71092;41.158;-8.680;2023-07-22T02:19:34;8.43;;;5.07;;
81672;SDS011;71092;41.158;-8.680;2023-07-22T02:22:00;8.73;;;4.47;;
81672;SDS011;71092;41.158;-8.680;2023-07-22T02:24:26;7.72;;;4.43;;
81672;SDS011;71092;41.158;-8.680;2023-07-22T02:26:52;8.45;;;3.80;;
81672;SDS011;71092;41.158;-8.680;2023-07-22T02:29:18;7.63;;;4.20;;
81672;SDS011;71092;41.158;-8.680;2023-07-22T02:31:45;9.57;;;4.47;;
81672;SDS011;71092;41.158;-8.680;2023-07-22T02:34:11;8.07;;;4.47;;
81672;SDS011;71092;41.158;-8.680;2023-07-22T02:36:37;7.05;;;4.32;;
81672;SDS011;71092;41.158;-8.680;2023-07-22T02:39:03;7.20;;;3.80;;
81672;SDS011;71092;41.158;-8.680;2023-07-22T02:41:29;7.88;;;4.47;;
81672;SDS011;71092;41.158;-8.680;2023-07-22T02:43:55;7.40;;;4.30;;
81672;SDS011;71092;41.158;-8.680;2023-07-22T02:46:22;7.15;;;4.05;;
81672;SDS011;71092;41.158;-8.680;2023-07-22T02:48:48;8.68;;;3.80;;
81672;SDS011;71092;41.158;-8.680;2023-07-22T02:51:14;8.27;;;4.45;;
81672;SDS011;71092;41.158;-8.680;2023-07-22T02:53:39;9.13;;;4.93;;
81672;SDS011;71092;41.158;-8.680;2023-07-22T02:56:06;9.18;;;4.70;;
81672;SDS011;71092;41.158;-8.680;2023-07-22T02:58:32;8.70;;;4.70;;
81672;SDS011;71092;41.158;-8.680;2023-07-22T03:00:59;8.88;;;4.18;;
81672;SDS011;71092;41.158;-8.680;2023-07-22T03:03:25;10.02;;;5.13;;
81672;SDS011;71092;41.158;-8.680;2023-07-22T03:05:51;7.38;;;4.05;;
81672;SDS011;71092;41.158;-8.680;2023-07-22T03:08:17;8.98;;;4.80;;
81672;SDS011;71092;41.158;-8.680;2023-07-22T03:10:44;9.40;;;4.85;;
81672;SDS011;71092;41.158;-8.680;2023-07-22T03:13:14;6.93;;;4.32;;
81672;SDS011;71092;41.158;-8.680;2023-07-22T03:15:41;7.93;;;4.47;;
81672;SDS011;71092;41.158;-8.680;2023-07-22T03:18:07;13.73;;;4.07;;
81672;SDS011;71092;41.158;-8.680;2023-07-22T03:20:33;8.40;;;4.70;;
81672;SDS011;71092;41.158;-8.680;2023-07-22T03:22:58;9.55;;;4.40;;
81672;SDS011;71092;41.158;-8.680;2023-07-22T03:25:24;8.45;;;4.60;;
81672;SDS011;71092;41.158;-8.680;2023-07-22T03:27:51;8.93;;;4.32;;
81672;SDS011;71092;41.158;-8.680;2023-07-22T03:30:17;10.95;;;4.72;;
81672;SDS011;71092;41.158;-8.680;2023-07-22T03:32:44;7.80;;;4.40;;
81672;SDS011;71092;41.158;-8.680;2023-07-22T03:35:11;6.75;;;3.80;;
81672;SDS011;71092;41.158;-8.680;2023-07-22T03:37:37;6.35;;;3.88;;
81672;SDS011;71092;41.158;-8.680;2023-07-22T03:40:03;8.27;;;4.80;;
81672;SDS011;71092;41.158;-8.680;2023-07-22T03:42:39;8.10;;;4.80;;
81672;SDS011;71092;41.158;-8.680;2023-07-22T03:45:05;8.50;;;4.55;;
81672;SDS011;71092;41.158;-8.680;2023-07-22T03:47:32;10.13;;;4.28;;
81672;SDS011;71092;41.158;-8.680;2023-07-22T03:49:58;8.90;;;4.63;;
81672;SDS011;71092;41.158;-8.680;2023-07-22T03:52:24;7.32;;;4.07;;
81672;SDS011;71092;41.158;-8.680;2023-07-22T03:54:50;8.93;;;4.60;;
81672;SDS011;71092;41.158;-8.680;2023-07-22T03:57:15;7.40;;;4.30;;
81672;SDS011;71092;41.158;-8.680;2023-07-22T03:59:41;8.45;;;5.05;;
81672;SDS011;71092;41.158;-8.680;2023-07-22T04:02:07;8.40;;;4.22;;
81672;SDS011;71092;41.158;-8.680;2023-07-22T04:04:33;6.85;;;4.22;;
81672;SDS011;71092;41.158;-8.680;2023-07-22T04:06:59;7.15;;;4.00;;
81672;SDS011;71092;41.158;-8.680;2023-07-22T04:09:26;8.27;;;3.92;;
81672;SDS011;71092;41.158;-8.680;2023-07-22T04:11:52;9.15;;;4.80;;
81672;SDS011;71092;41.158;-8.680;2023-07-22T04:14:18;10.05;;;3.88;;
81672;SDS011;71092;41.158;-8.680;2023-07-22T04:16:44;11.05;;;4.63;;
81672;SDS011;71092;41.158;-8.680;2023-07-22T04:19:09;10.18;;;5.03;;
81672;SDS011;71092;41.158;-8.680;2023-07-22T04:21:36;8.25;;;4.88;;
81672;SDS011;71092;41.158;-8.680;2023-07-22T04:24:01;7.72;;;3.97;;
81672;SDS011;71092;41.158;-8.680;2023-07-22T04:26:27;7.75;;;4.53;;
81672;SDS011;71092;41.158;-8.680;2023-07-22T04:28:55;7.68;;;4.20;;
81672;SDS011;71092;41.158;-8.680;2023-07-22T04:31:21;7.43;;;4.60;;
81672;SDS011;71092;41.158;-8.680;2023-07-22T04:33:47;10.35;;;5.43;;
81672;SDS011;71092;41.158;-8.680;2023-07-22T04:36:13;8.27;;;4.60;;
81672;SDS011;71092;41.158;-8.680;2023-07-22T04:38:39;9.25;;;4.85;;
81672;SDS011;71092;41.158;-8.680;2023-07-22T04:41:04;8.63;;;4.68;;
81672;SDS011;71092;41.158;-8.680;2023-07-22T04:43:31;11.68;;;4.82;;
81672;SDS011;71092;41.158;-8.680;2023-07-22T04:45:56;7.90;;;4.60;;
81672;SDS011;71092;41.158;-8.680;2023-07-22T04:48:22;6.85;;;3.85;;
81672;SDS011;71092;41.158;-8.680;2023-07-22T04:50:48;8.00;;;4.40;;
81672;SDS011;71092;41.158;-8.680;2023-07-22T04:53:16;9.77;;;4.18;;
81672;SDS011;71092;41.158;-8.680;2023-07-22T04:55:42;8.55;;;4.88;;
81672;SDS011;71092;41.158;-8.680;2023-07-22T04:58:08;11.65;;;4.60;;
81672;SDS011;71092;41.158;-8.680;2023-07-22T05:00:37;8.40;;;4.28;;
81672;SDS011;71092;41.158;-8.680;2023-07-22T05:03:03;8.80;;;4.45;;
81672;SDS011;71092;41.158;-8.680;2023-07-22T05:05:29;7.70;;;4.82;;
81672;SDS011;71092;41.158;-8.680;2023-07-22T05:07:56;7.57;;;4.70;;
81672;SDS011;71092;41.158;-8.680;2023-07-22T05:10:22;9.88;;;4.25;;
81672;SDS011;71092;41.158;-8.680;2023-07-22T05:12:48;10.27;;;4.43;;
81672;SDS011;71092;41.158;-8.680;2023-07-22T05:15:14;10.40;;;4.38;;
81672;SDS011;71092;41.158;-8.680;2023-07-22T05:17:40;9.07;;;4.68;;
81672;SDS011;71092;41.158;-8.680;2023-07-22T05:20:25;11.27;;;3.88;;
81672;SDS011;71092;41.158;-8.680;2023-07-22T05:22:51;10.38;;;4.93;;
81672;SDS011;71092;41.158;-8.680;2023-07-22T05:25:17;9.05;;;4.63;;
81672;SDS011;71092;41.158;-8.680;2023-07-22T05:27:43;7.85;;;4.10;;
81672;SDS011;71092;41.158;-8.680;2023-07-22T05:30:09;9.18;;;4.25;;
81672;SDS011;71092;41.158;-8.680;2023-07-22T05:32:36;7.95;;;4.35;;
81672;SDS011;71092;41.158;-8.680;2023-07-22T05:35:01;9.75;;;4.30;;
81672;SDS011;71092;41.158;-8.680;2023-07-22T05:37:30;7.38;;;4.50;;
81672;SDS011;71092;41.158;-8.680;2023-07-22T05:39:57;10.40;;;6.35;;
81672;SDS011;71092;41.158;-8.680;2023-07-22T05:42:23;6.70;;;3.78;;
81672;SDS011;71092;41.158;-8.680;2023-07-22T05:44:49;8.43;;;4.30;;
81672;SDS011;71092;41.158;-8.680;2023-07-22T05:47:15;7.93;;;4.13;;
81672;SDS011;71092;41.158;-8.680;2023-07-22T05:49:40;7.80;;;4.32;;
81672;SDS011;71092;41.158;-8.680;2023-07-22T05:52:06;8.05;;;4.30;;
81672;SDS011;71092;41.158;-8.680;2023-07-22T05:54:32;9.57;;;5.03;;
81672;SDS011;71092;41.158;-8.680;2023-07-22T05:56:58;8.68;;;5.03;;
81672;SDS011;71092;41.158;-8.680;2023-07-22T05:59:24;7.75;;;4.10;;
81672;SDS011;71092;41.158;-8.680;2023-07-22T06:01:50;8.32;;;4.70;;
81672;SDS011;71092;41.158;-8.680;2023-07-22T06:04:16;9.48;;;4.68;;
81672;SDS011;71092;41.158;-8.680;2023-07-22T06:06:41;8.73;;;4.75;;
81672;SDS011;71092;41.158;-8.680;2023-07-22T06:09:07;6.45;;;4.22;;
81672;SDS011;71092;41.158;-8.680;2023-07-22T06:11:33;8.75;;;4.53;;
81672;SDS011;71092;41.158;-8.680;2023-07-22T06:13:59;7.25;;;4.82;;
81672;SDS011;71092;41.158;-8.680;2023-07-22T06:16:24;8.25;;;4.78;;
81672;SDS011;71092;41.158;-8.680;2023-07-22T06:18:50;8.43;;;4.22;;
81672;SDS011;71092;41.158;-8.680;2023-07-22T06:21:16;8.27;;;5.10;;
81672;SDS011;71092;41.158;-8.680;2023-07-22T06:23:42;9.60;;;5.18;;
81672;SDS011;71092;41.158;-8.680;2023-07-22T06:26:08;7.20;;;3.92;;
81672;SDS011;71092;41.158;-8.680;2023-07-22T06:28:33;6.85;;;4.10;;
81672;SDS011;71092;41.158;-8.680;2023-07-22T06:31:00;8.32;;;4.57;;
81672;SDS011;71092;41.158;-8.680;2023-07-22T06:33:25;9.60;;;4.68;;
81672;SDS011;71092;41.158;-8.680;2023-07-22T06:35:51;6.85;;;4.65;;
81672;SDS011;71092;41.158;-8.680;2023-07-22T06:38:17;9.73;;;4.43;;
81672;SDS011;71092;41.158;-8.680;2023-07-22T06:40:43;7.25;;;4.15;;
81672;SDS011;71092;41.158;-8.680;2023-07-22T06:43:09;9.10;;;4.35;;
81672;SDS011;71092;41.158;-8.680;2023-07-22T06:45:35;9.18;;;4.85;;
81672;SDS011;71092;41.158;-8.680;2023-07-22T06:48:00;8.32;;;4.93;;
81672;SDS011;71092;41.158;-8.680;2023-07-22T06:50:26;10.25;;;5.22;;
81672;SDS011;71092;41.158;-8.680;2023-07-22T06:52:52;8.45;;;4.63;;
81672;SDS011;71092;41.158;-8.680;2023-07-22T06:55:18;9.48;;;4.63;;
81672;SDS011;71092;41.158;-8.680;2023-07-22T06:57:44;9.40;;;4.45;;
81672;SDS011;71092;41.158;-8.680;2023-07-22T07:00:10;11.23;;;5.78;;
81672;SDS011;71092;41.158;-8.680;2023-07-22T07:02:36;10.05;;;4.93;;
81672;SDS011;71092;41.158;-8.680;2023-07-22T07:05:02;7.30;;;4.32;;
81672;SDS011;71092;41.158;-8.680;2023-07-22T07:07:29;8.80;;;4.85;;
81672;SDS011;71092;41.158;-8.680;2023-07-22T07:09:55;7.03;;;4.50;;
81672;SDS011;71092;41.158;-8.680;2023-07-22T07:12:21;9.90;;;4.57;;
81672;SDS011;71092;41.158;-8.680;2023-07-22T07:14:49;8.00;;;3.97;;
81672;SDS011;71092;41.158;-8.680;2023-07-22T07:17:15;8.25;;;4.50;;
81672;SDS011;71092;41.158;-8.680;2023-07-22T07:19:41;9.60;;;4.30;;
81672;SDS011;71092;41.158;-8.680;2023-07-22T07:22:07;9.02;;;4.35;;
81672;SDS011;71092;41.158;-8.680;2023-07-22T07:24:33;11.23;;;5.35;;
81672;SDS011;71092;41.158;-8.680;2023-07-22T07:26:59;11.02;;;5.05;;
81672;SDS011;71092;41.158;-8.680;2023-07-22T07:29:24;10.35;;;4.60;;
81672;SDS011;71092;41.158;-8.680;2023-07-22T07:31:51;9.48;;;5.10;;
81672;SDS011;71092;41.158;-8.680;2023-07-22T07:34:17;9.90;;;5.60;;
81672;SDS011;71092;41.158;-8.680;2023-07-22T07:36:43;8.75;;;4.82;;
81672;SDS011;71092;41.158;-8.680;2023-07-22T07:39:09;8.20;;;4.55;;
81672;SDS011;71092;41.158;-8.680;2023-07-22T07:41:34;8.10;;;4.40;;
81672;SDS011;71092;41.158;-8.680;2023-07-22T07:44:00;11.93;;;5.05;;
81672;SDS011;71092;41.158;-8.680;2023-07-22T07:46:27;8.77;;;5.72;;
81672;SDS011;71092;41.158;-8.680;2023-07-22T07:48:57;10.02;;;3.95;;
81672;SDS011;71092;41.158;-8.680;2023-07-22T07:51:27;11.25;;;4.70;;
81672;SDS011;71092;41.158;-8.680;2023-07-22T07:53:55;14.15;;;5.07;;
81672;SDS011;71092;41.158;-8.680;2023-07-22T07:56:22;9.88;;;5.53;;
81672;SDS011;71092;41.158;-8.680;2023-07-22T07:58:49;7.35;;;4.65;;
81672;SDS011;71092;41.158;-8.680;2023-07-22T08:01:15;9.05;;;4.50;;
81672;SDS011;71092;41.158;-8.680;2023-07-22T08:03:42;10.25;;;4.40;;
81672;SDS011;71092;41.158;-8.680;2023-07-22T08:06:08;11.18;;;5.78;;
81672;SDS011;71092;41.158;-8.680;2023-07-22T08:08:35;9.77;;;4.32;;
81672;SDS011;71092;41.158;-8.680;2023-07-22T08:11:03;10.80;;;5.47;;
81672;SDS011;71092;41.158;-8.680;2023-07-22T08:13:31;10.60;;;5.05;;
81672;SDS011;71092;41.158;-8.680;2023-07-22T08:15:59;12.05;;;5.00;;
81672;SDS011;71092;41.158;-8.680;2023-07-22T08:18:26;10.73;;;4.55;;
81672;SDS011;71092;41.158;-8.680;2023-07-22T08:20:52;8.30;;;4.28;;
81672;SDS011;71092;41.158;-8.680;2023-07-22T08:23:19;11.13;;;5.10;;
81672;SDS011;71092;41.158;-8.680;2023-07-22T08:25:45;9.38;;;4.75;;
81672;SDS011;71092;41.158;-8.680;2023-07-22T08:28:11;9.57;;;4.40;;
81672;SDS011;71092;41.158;-8.680;2023-07-22T08:30:37;13.80;;;5.32;;
81672;SDS011;71092;41.158;-8.680;2023-07-22T08:33:24;9.93;;;5.18;;
81672;SDS011;71092;41.158;-8.680;2023-07-22T08:35:51;11.10;;;5.10;;
81672;SDS011;71092;41.158;-8.680;2023-07-22T08:38:17;9.82;;;5.03;;
81672;SDS011;71092;41.158;-8.680;2023-07-22T08:40:43;24.17;;;12.48;;
81672;SDS011;71092;41.158;-8.680;2023-07-22T08:45:54;26.88;;;13.80;;
81672;SDS011;71092;41.158;-8.680;2023-07-22T08:48:19;24.88;;;11.95;;
81672;SDS011;71092;41.158;-8.680;2023-07-22T08:50:52;29.58;;;15.32;;
81672;SDS011;71092;41.158;-8.680;2023-07-22T08:53:19;26.63;;;15.75;;
81672;SDS011;71092;41.158;-8.680;2023-07-22T08:55:45;29.77;;;16.35;;
81672;SDS011;71092;41.158;-8.680;2023-07-22T08:58:13;20.40;;;12.93;;
81672;SDS011;71092;41.158;-8.680;2023-07-22T09:00:39;30.45;;;14.38;;
81672;SDS011;71092;41.158;-8.680;2023-07-22T09:03:06;39.80;;;17.58;;
81672;SDS011;71092;41.158;-8.680;2023-07-22T09:05:33;18.42;;;8.82;;
81672;SDS011;71092;41.158;-8.680;2023-07-22T09:08:01;19.10;;;10.23;;
81672;SDS011;71092;41.158;-8.680;2023-07-22T09:10:28;23.20;;;13.27;;
81672;SDS011;71092;41.158;-8.680;2023-07-22T09:12:54;13.75;;;8.63;;
81672;SDS011;71092;41.158;-8.680;2023-07-22T09:15:20;25.40;;;16.17;;
81672;SDS011;71092;41.158;-8.680;2023-07-22T09:17:46;18.35;;;10.38;;
81672;SDS011;71092;41.158;-8.680;2023-07-22T09:20:13;20.95;;;9.95;;
81672;SDS011;71092;41.158;-8.680;2023-07-22T09:22:46;20.77;;;11.52;;
81672;SDS011;71092;41.158;-8.680;2023-07-22T09:25:14;21.13;;;12.15;;
81672;SDS011;71092;41.158;-8.680;2023-07-22T09:27:41;22.73;;;12.90;;
81672;SDS011;71092;41.158;-8.680;2023-07-22T09:32:53;21.48;;;13.73;;
81672;SDS011;71092;41.158;-8.680;2023-07-22T09:35:27;22.75;;;12.75;;
81672;SDS011;71092;41.158;-8.680;2023-07-22T09:38:13;19.92;;;12.45;;
81672;SDS011;71092;41.158;-8.680;2023-07-22T09:40:43;19.55;;;11.63;;
81672;SDS011;71092;41.158;-8.680;2023-07-22T09:43:09;23.55;;;11.82;;
81672;SDS011;71092;41.158;-8.680;2023-07-22T09:45:36;22.88;;;11.18;;
81672;SDS011;71092;41.158;-8.680;2023-07-22T09:48:05;18.10;;;9.50;;
81672;SDS011;71092;41.158;-8.680;2023-07-22T09:50:56;18.52;;;10.73;;
81672;SDS011;71092;41.158;-8.680;2023-07-22T09:53:45;16.05;;;9.45;;
81672;SDS011;71092;41.158;-8.680;2023-07-22T09:56:12;19.42;;;10.55;;
81672;SDS011;71092;41.158;-8.680;2023-07-22T09:58:38;21.75;;;11.85;;
81672;SDS011;71092;41.158;-8.680;2023-07-22T10:01:05;21.92;;;10.60;;
81672;SDS011;71092;41.158;-8.680;2023-07-22T10:03:31;18.42;;;12.25;;
81672;SDS011;71092;41.158;-8.680;2023-07-22T10:05:58;19.48;;;11.10;;
81672;SDS011;71092;41.158;-8.680;2023-07-22T10:08:25;19.05;;;11.68;;
81672;SDS011;71092;41.158;-8.680;2023-07-22T10:10:53;18.13;;;13.00;;
81672;SDS011;71092;41.158;-8.680;2023-07-22T10:13:19;25.25;;;16.27;;
81672;SDS011;71092;41.158;-8.680;2023-07-22T10:16:04;23.83;;;14.95;;
81672;SDS011;71092;41.158;-8.680;2023-07-22T10:18:31;19.80;;;13.52;;
81672;SDS011;71092;41.158;-8.680;2023-07-22T10:20:57;18.20;;;9.75;;
81672;SDS011;71092;41.158;-8.680;2023-07-22T10:23:42;11.10;;;6.50;;
81672;SDS011;71092;41.158;-8.680;2023-07-22T10:26:11;12.50;;;6.05;;
81672;SDS011;71092;41.158;-8.680;2023-07-22T10:28:39;10.57;;;5.43;;
81672;SDS011;71092;41.158;-8.680;2023-07-22T10:31:06;15.52;;;5.18;;
81672;SDS011;71092;41.158;-8.680;2023-07-22T10:33:32;11.55;;;5.43;;
81672;SDS011;71092;41.158;-8.680;2023-07-22T10:36:04;9.75;;;4.20;;
81672;SDS011;71092;41.158;-8.680;2023-07-22T10:38:56;9.73;;;4.63;;
81672;SDS011;71092;41.158;-8.680;2023-07-22T10:41:41;10.07;;;5.28;;
81672;SDS011;71092;41.158;-8.680;2023-07-22T10:44:44;9.60;;;4.88;;
81672;SDS011;71092;41.158;-8.680;2023-07-22T10:47:33;12.95;;;4.70;;
81672;SDS011;71092;41.158;-8.680;2023-07-22T10:50:18;13.23;;;5.25;;
81672;SDS011;71092;41.158;-8.680;2023-07-22T10:52:45;11.30;;;4.40;;
81672;SDS011;71092;41.158;-8.680;2023-07-22T10:55:16;11.77;;;5.07;;
81672;SDS011;71092;41.158;-8.680;2023-07-22T10:57:48;9.32;;;3.90;;
81672;SDS011;71092;41.158;-8.680;2023-07-22T11:00:20;9.05;;;4.55;;
81672;SDS011;71092;41.158;-8.680;2023-07-22T11:02:47;12.68;;;4.55;;
81672;SDS011;71092;41.158;-8.680;2023-07-22T11:05:49;11.43;;;4.68;;
81672;SDS011;71092;41.158;-8.680;2023-07-22T11:08:36;10.30;;;4.03;;
81672;SDS011;71092;41.158;-8.680;2023-07-22T11:11:06;8.82;;;3.90;;
81672;SDS011;71092;41.158;-8.680;2023-07-22T11:13:38;10.05;;;3.72;;
81672;SDS011;71092;41.158;-8.680;2023-07-22T11:16:09;10.25;;;3.92;;
81672;SDS011;71092;41.158;-8.680;2023-07-22T11:18:39;9.52;;;4.28;;
81672;SDS011;71092;41.158;-8.680;2023-07-22T11:21:11;7.93;;;3.70;;
81672;SDS011;71092;41.158;-8.680;2023-07-22T11:23:38;10.85;;;4.13;;
81672;SDS011;71092;41.158;-8.680;2023-07-22T11:26:03;13.05;;;3.65;;
81672;SDS011;71092;41.158;-8.680;2023-07-22T11:28:31;11.30;;;4.13;;
81672;SDS011;71092;41.158;-8.680;2023-07-22T11:30:57;12.38;;;3.67;;
81672;SDS011;71092;41.158;-8.680;2023-07-22T11:33:43;9.77;;;3.65;;
81672;SDS011;71092;41.158;-8.680;2023-07-22T11:36:30;11.82;;;4.03;;
81672;SDS011;71092;41.158;-8.680;2023-07-22T11:39:03;12.48;;;3.97;;
81672;SDS011;71092;41.158;-8.680;2023-07-22T11:41:31;14.05;;;4.00;;
81672;SDS011;71092;41.158;-8.680;2023-07-22T11:43:57;8.35;;;3.20;;
81672;SDS011;71092;41.158;-8.680;2023-07-22T11:46:24;8.40;;;3.53;;
81672;SDS011;71092;41.158;-8.680;2023-07-22T11:48:51;8.55;;;3.58;;
81672;SDS011;71092;41.158;-8.680;2023-07-22T11:51:21;10.13;;;3.17;;
81672;SDS011;71092;41.158;-8.680;2023-07-22T11:53:52;10.00;;;3.53;;
81672;SDS011;71092;41.158;-8.680;2023-07-22T11:56:22;14.07;;;3.47;;
81672;SDS011;71092;41.158;-8.680;2023-07-22T11:59:08;7.70;;;3.35;;
81672;SDS011;71092;41.158;-8.680;2023-07-22T12:01:53;12.15;;;3.60;;
81672;SDS011;71092;41.158;-8.680;2023-07-22T12:04:37;9.00;;;3.67;;
81672;SDS011;71092;41.158;-8.680;2023-07-22T12:09:53;16.48;;;4.22;;
81672;SDS011;71092;41.158;-8.680;2023-07-22T12:12:19;9.73;;;3.30;;
81672;SDS011;71092;41.158;-8.680;2023-07-22T12:14:45;11.32;;;3.20;;
81672;SDS011;71092;41.158;-8.680;2023-07-22T12:17:11;14.80;;;3.40;;
81672;SDS011;71092;41.158;-8.680;2023-07-22T12:19:37;8.95;;;4.03;;
81672;SDS011;71092;41.158;-8.680;2023-07-22T12:22:03;12.23;;;4.13;;
81672;SDS011;71092;41.158;-8.680;2023-07-22T12:24:29;11.32;;;3.53;;
81672;SDS011;71092;41.158;-8.680;2023-07-22T12:26:55;11.63;;;3.78;;
81672;SDS011;71092;41.158;-8.680;2023-07-22T12:29:21;10.63;;;3.00;;
81672;SDS011;71092;41.158;-8.680;2023-07-22T12:31:51;13.50;;;3.97;;
81672;SDS011;71092;41.158;-8.680;2023-07-22T12:34:17;10.77;;;3.35;;
81672;SDS011;71092;41.158;-8.680;2023-07-22T12:36:43;11.48;;;3.55;;
81672;SDS011;71092;41.158;-8.680;2023-07-22T12:39:09;9.10;;;3.35;;
81672;SDS011;71092;41.158;-8.680;2023-07-22T12:41:35;13.00;;;3.63;;
81672;SDS011;71092;41.158;-8.680;2023-07-22T12:44:00;15.90;;;4.32;;
81672;SDS011;71092;41.158;-8.680;2023-07-22T12:46:26;19.98;;;4.18;;
81672;SDS011;71092;41.158;-8.680;2023-07-22T12:48:52;29.70;;;4.53;;
81672;SDS011;71092;41.158;-8.680;2023-07-22T12:51:18;18.17;;;3.58;;
81672;SDS011;71092;41.158;-8.680;2023-07-22T12:53:44;27.15;;;4.25;;
81672;SDS011;71092;41.158;-8.680;2023-07-22T12:59:12;22.08;;;4.38;;
81672;SDS011;71092;41.158;-8.680;2023-07-22T13:01:38;20.35;;;4.38;;
81672;SDS011;71092;41.158;-8.680;2023-07-22T13:04:06;29.98;;;4.75;;
81672;SDS011;71092;41.158;-8.680;2023-07-22T13:06:32;32.50;;;5.82;;
81672;SDS011;71092;41.158;-8.680;2023-07-22T13:09:16;31.33;;;4.32;;
81672;SDS011;71092;41.158;-8.680;2023-07-22T13:12:00;26.02;;;5.30;;
81672;SDS011;71092;41.158;-8.680;2023-07-22T13:14:45;32.70;;;6.07;;
81672;SDS011;71092;41.158;-8.680;2023-07-22T13:17:31;40.70;;;5.88;;
81672;SDS011;71092;41.158;-8.680;2023-07-22T13:19:57;39.72;;;6.07;;
81672;SDS011;71092;41.158;-8.680;2023-07-22T13:22:23;36.97;;;5.50;;
81672;SDS011;71092;41.158;-8.680;2023-07-22T13:24:49;31.15;;;5.78;;
81672;SDS011;71092;41.158;-8.680;2023-07-22T13:27:15;38.88;;;6.40;;
81672;SDS011;71092;41.158;-8.680;2023-07-22T13:29:41;31.35;;;5.10;;
81672;SDS011;71092;41.158;-8.680;2023-07-22T13:32:06;36.75;;;5.53;;
81672;SDS011;71092;41.158;-8.680;2023-07-22T13:34:51;23.95;;;4.78;;
81672;SDS011;71092;41.158;-8.680;2023-07-22T13:37:17;31.48;;;5.43;;
81672;SDS011;71092;41.158;-8.680;2023-07-22T13:39:43;35.90;;;6.22;;
81672;SDS011;71092;41.158;-8.680;2023-07-22T13:42:27;33.08;;;6.28;;
81672;SDS011;71092;41.158;-8.680;2023-07-22T13:45:12;48.75;;;6.97;;
81672;SDS011;71092;41.158;-8.680;2023-07-22T13:47:56;37.90;;;6.28;;
81672;SDS011;71092;41.158;-8.680;2023-07-22T13:50:22;32.72;;;6.65;;
81672;SDS011;71092;41.158;-8.680;2023-07-22T13:52:48;37.45;;;6.22;;
81672;SDS011;71092;41.158;-8.680;2023-07-22T13:55:17;22.15;;;5.50;;
81672;SDS011;71092;41.158;-8.680;2023-07-22T13:57:46;33.50;;;6.10;;
81672;SDS011;71092;41.158;-8.680;2023-07-22T14:00:12;28.42;;;6.03;;
81672;SDS011;71092;41.158;-8.680;2023-07-22T14:02:39;30.65;;;6.13;;
81672;SDS011;71092;41.158;-8.680;2023-07-22T14:05:06;17.02;;;5.25;;
81672;SDS011;71092;41.158;-8.680;2023-07-22T14:07:33;25.88;;;7.28;;
81672;SDS011;71092;41.158;-8.680;2023-07-22T14:10:02;27.02;;;6.35;;
81672;SDS011;71092;41.158;-8.680;2023-07-22T14:12:29;36.50;;;7.75;;
81672;SDS011;71092;41.158;-8.680;2023-07-22T14:14:55;26.83;;;6.35;;
81672;SDS011;71092;41.158;-8.680;2023-07-22T14:17:21;37.20;;;8.63;;
81672;SDS011;71092;41.158;-8.680;2023-07-22T14:20:24;33.53;;;6.30;;
81672;SDS011;71092;41.158;-8.680;2023-07-22T14:23:09;32.28;;;6.50;;
81672;SDS011;71092;41.158;-8.680;2023-07-22T14:25:35;33.10;;;6.53;;
81672;SDS011;71092;41.158;-8.680;2023-07-22T14:28:01;24.25;;;5.75;;
81672;SDS011;71092;41.158;-8.680;2023-07-22T14:30:46;29.92;;;6.00;;
81672;SDS011;71092;41.158;-8.680;2023-07-22T14:33:12;23.75;;;6.50;;
81672;SDS011;71092;41.158;-8.680;2023-07-22T14:35:37;34.22;;;6.43;;
81672;SDS011;71092;41.158;-8.680;2023-07-22T14:38:03;25.40;;;6.82;;
81672;SDS011;71092;41.158;-8.680;2023-07-22T14:40:29;26.00;;;6.38;;
81672;SDS011;71092;41.158;-8.680;2023-07-22T14:42:55;27.27;;;6.78;;
81672;SDS011;71092;41.158;-8.680;2023-07-22T14:45:39;28.55;;;6.40;;
81672;SDS011;71092;41.158;-8.680;2023-07-22T14:48:05;29.75;;;7.43;;
81672;SDS011;71092;41.158;-8.680;2023-07-22T14:50:31;29.08;;;7.50;;